Time;durP1;ratioP1;P1;durP2;ratioP2;P2;SDS_P1;SDS_P2;PMS_P1;PMS_P2;Temp;Humidity;BMP_temperature;BMP_pressure;BME280_temperature;BME280_humidity;BME280_pressure;Samples;Min_cycle;Max_cycle;Signal;HPM_P1;HPM_P2
2023/02/25 00:01:45;;;;;;;9.03;6.97;;;4.00;99.90;;;-141.84;81.00;18917.66;5054149;28;20225;-59
2023/02/25 00:04:31;;;;;;;8.73;7.10;;;4.10;99.90;;;-141.84;81.17;18879.06;5054504;28;20651;-58
2023/02/25 00:06:59;;;;;;;10.77;7.20;;;4.10;99.90;;;-141.84;80.55;18954.25;5053816;28;20318;-57
2023/02/25 00:09:31;;;;;;;10.67;6.83;;;4.10;99.90;;;-141.84;81.05;18909.53;5053746;28;20901;-57
2023/02/25 00:12:00;;;;;;;10.77;7.10;;;4.10;99.90;;;-141.84;81.47;18940.03;5054104;28;20251;-58
2023/02/25 00:14:28;;;;;;;10.87;7.53;;;4.10;99.90;;;-141.84;81.45;18925.81;5054142;28;20232;-58
2023/02/25 00:16:56;;;;;;;8.30;6.57;;;4.10;99.90;;;-141.84;80.84;18931.91;5053189;28;20268;-58
2023/02/25 00:19:26;;;;;;;8.53;6.30;;;4.20;99.90;;;-141.84;79.53;18942.06;5054293;28;20214;-58
2023/02/25 00:21:54;;;;;;;8.43;6.87;;;4.30;99.90;;;-141.84;79.92;18923.78;5054311;28;20229;-57
2023/02/25 00:24:22;;;;;;;8.27;5.93;;;4.20;99.90;;;-141.84;80.15;18944.09;5043869;28;20226;-60
2023/02/25 00:26:52;;;;;;;7.87;5.77;;;4.30;99.90;;;-141.84;80.07;18950.19;5033745;28;20223;-57
2023/02/25 00:29:21;;;;;;;8.60;5.57;;;4.30;99.90;;;-141.84;80.86;18919.69;5033916;28;20236;-59
2023/02/25 00:31:49;;;;;;;9.43;5.87;;;4.30;99.90;;;-141.84;81.43;18911.56;5033372;28;20205;-56
2023/02/25 00:34:17;;;;;;;8.80;5.27;;;4.20;99.90;;;-141.84;81.60;18921.75;5034477;28;20296;-58
2023/02/25 00:36:45;;;;;;;7.73;4.50;;;4.20;99.90;;;-141.84;81.27;18923.78;5033548;28;20255;-56
2023/02/25 00:39:14;;;;;;;9.80;4.70;;;4.20;99.90;;;-141.84;79.95;18929.88;5043122;28;20319;-59
2023/02/25 00:41:42;;;;;;;8.40;4.67;;;4.30;99.90;;;-141.84;80.46;18942.06;5053297;28;20260;-58
2023/02/25 00:44:12;;;;;;;8.03;4.20;;;4.20;99.90;;;-141.84;80.82;18919.69;5053756;28;20223;-57
2023/02/25 00:46:40;;;;;;;8.07;3.50;;;4.20;99.90;;;-141.84;80.78;18944.09;5045039;28;20463;-59
2023/02/25 00:49:08;;;;;;;8.77;3.83;;;4.20;99.90;;;-141.84;80.53;18907.50;5049163;28;20602;-59
2023/02/25 00:51:39;;;;;;;7.60;3.40;;;4.20;99.90;;;-141.84;79.33;18903.44;5053268;28;20228;-57
2023/02/25 00:54:07;;;;;;;6.43;3.33;;;4.20;99.90;;;-141.84;80.12;18895.31;5053052;28;20236;-58
2023/02/25 00:56:36;;;;;;;7.20;3.53;;;4.20;99.90;;;-141.84;80.75;18911.56;5053120;28;20227;-58
2023/02/25 00:59:04;;;;;;;7.57;3.00;;;4.20;99.90;;;-141.84;80.26;18905.47;5053250;28;20602;-58
2023/02/25 01:01:36;;;;;;;9.40;3.70;;;4.20;99.90;;;-141.84;80.27;18921.75;5053259;28;20603;-61
2023/02/25 01:04:05;;;;;;;8.03;3.17;;;4.20;99.90;;;-141.84;79.70;18915.63;5052518;28;20225;-56
2023/02/25 01:06:37;;;;;;;7.77;3.40;;;4.20;99.90;;;-141.84;80.34;18905.47;5052715;28;20309;-57
2023/02/25 01:09:12;;;;;;;9.30;3.10;;;4.20;99.90;;;-141.84;79.75;18968.47;5052737;28;20246;-58
2023/02/25 01:11:45;;;;;;;8.47;3.03;;;4.20;99.90;;;-141.84;80.26;18948.16;5052493;28;20232;-59
2023/02/25 01:14:17;;;;;;;5.17;3.03;;;4.30;99.90;;;-141.84;80.73;18911.56;5052844;28;20229;-58
2023/02/25 01:16:48;;;;;;;7.67;3.03;;;4.20;99.90;;;-141.84;80.33;18921.75;5052243;28;20322;-59
2023/02/25 01:19:20;;;;;;;5.93;2.30;;;4.30;99.90;;;-141.84;79.26;18954.25;5053075;28;20215;-56
2023/02/25 01:21:52;;;;;;;9.93;2.57;;;4.30;99.90;;;-141.84;78.43;18891.25;5049424;28;20231;-59
2023/02/25 01:24:23;;;;;;;8.97;3.03;;;4.30;99.90;;;-141.84;77.83;18964.41;5052514;28;20708;-55
2023/02/25 01:26:55;;;;;;;7.77;2.67;;;4.30;99.90;;;-141.84;77.74;18972.53;5052339;28;20314;-58
2023/02/25 01:29:27;;;;;;;12.50;2.83;;;4.40;99.90;;;-141.84;77.45;18964.41;5052567;28;20228;-57
2023/02/25 01:32:00;;;;;;;8.73;2.97;;;4.40;99.90;;;-141.84;77.51;18940.03;5052029;28;20188;-57
2023/02/25 01:34:30;;;;;;;11.87;2.90;;;4.40;99.90;;;-141.84;78.75;18944.09;5052900;28;20185;-60
2023/02/25 01:36:59;;;;;;;6.53;2.13;;;4.40;99.90;;;-141.84;79.03;18956.28;5052059;28;20233;-57
2023/02/25 01:39:28;;;;;;;10.57;2.30;;;4.40;99.90;;;-141.84;78.64;18958.31;5052145;28;20244;-59
2023/02/25 01:42:01;;;;;;;6.80;2.10;;;4.40;99.90;;;-141.84;78.35;18952.22;5052014;28;20236;-57
2023/02/25 01:44:32;;;;;;;9.67;2.20;;;4.40;99.90;;;-141.84;79.10;18935.97;5052340;28;20224;-58
2023/02/25 01:47:02;;;;;;;8.97;2.17;;;4.30;99.90;;;-141.84;78.72;18954.25;5040204;28;20201;-59
2023/02/25 01:49:36;;;;;;;9.50;2.17;;;4.30;99.90;;;-141.84;79.44;18919.69;5051336;28;20261;-58
2023/02/25 01:52:09;;;;;;;5.50;2.67;;;4.20;99.90;;;-141.84;79.51;18919.69;5052078;28;20225;-57
2023/02/25 01:54:39;;;;;;;7.50;1.90;;;4.10;99.90;;;-141.84;79.92;18907.50;5052095;28;20230;-56
2023/02/25 01:57:11;;;;;;;4.67;1.80;;;4.10;99.90;;;-141.84;80.53;18913.59;5052260;28;20230;-58
2023/02/25 01:59:42;;;;;;;10.40;2.57;;;4.10;99.90;;;-141.84;81.07;18931.91;5052494;28;20231;-57
2023/02/25 02:02:16;;;;;;;6.37;2.37;;;4.00;99.90;;;-141.84;81.02;18921.75;5052019;28;20227;-57
2023/02/25 02:04:48;;;;;;;5.00;1.90;;;4.00;99.90;;;-141.84;81.14;18893.28;5051884;28;20198;-59
2023/02/25 02:07:18;;;;;;;6.27;1.97;;;3.90;99.90;;;-141.84;80.71;18923.78;5052337;28;20208;-58
2023/02/25 02:09:55;;;;;;;6.53;2.10;;;4.00;99.90;;;-141.84;81.75;18925.81;5051656;28;20226;-58
2023/02/25 02:12:26;;;;;;;6.40;2.17;;;3.90;99.90;;;-141.84;81.00;18909.53;5051551;28;20225;-57
2023/02/25 02:14:57;;;;;;;8.17;2.17;;;3.90;99.90;;;-141.84;81.04;18929.88;5051549;28;20729;-58
2023/02/25 02:17:36;;;;;;;5.97;1.90;;;3.90;99.90;;;-141.84;81.45;18915.63;5040713;28;20232;-56
2023/02/25 02:20:14;;;;;;;5.27;1.63;;;3.90;99.90;;;-141.84;81.18;18887.19;5051391;28;20299;-59
2023/02/25 02:23:22;;;;;;;6.60;1.93;;;3.90;99.90;;;-141.84;81.84;18883.13;5051550;28;20212;-60
2023/02/25 02:26:43;;;;;;;5.20;1.77;;;3.90;99.90;;;-141.84;81.93;18872.97;5051259;28;20231;-56
2023/02/25 02:29:39;;;;;;;6.50;2.17;;;3.80;99.90;;;-141.84;81.88;18907.50;5051410;28;20227;-56
2023/02/25 02:32:23;;;;;;;5.97;2.30;;;3.90;99.90;;;-141.84;82.17;18903.44;5051303;28;20234;-58
2023/02/25 02:35:05;;;;;;;8.07;2.27;;;3.80;99.90;;;-141.84;82.00;18907.50;5051219;28;20202;-57
2023/02/25 02:37:47;;;;;;;8.47;2.07;;;3.80;99.90;;;-141.84;82.15;18854.69;5051503;28;20651;-58
2023/02/25 02:40:30;;;;;;;4.30;1.90;;;3.90;99.90;;;-141.84;82.76;18909.53;5051489;28;20223;-58
2023/02/25 02:43:17;;;;;;;6.83;2.23;;;3.80;99.90;;;-141.84;82.44;18881.09;5050799;28;20239;-54
2023/02/25 02:45:54;;;;;;;5.70;2.00;;;3.80;99.90;;;-141.84;82.19;18881.09;5049767;28;20233;-56
2023/02/25 02:48:31;;;;;;;6.10;2.20;;;3.80;99.90;;;-141.84;82.38;18927.84;5040156;28;20227;-59
2023/02/25 02:51:05;;;;;;;4.53;1.73;;;3.80;99.90;;;-141.84;82.48;18921.75;5051056;28;20770;-58
2023/02/25 02:53:40;;;;;;;6.90;2.27;;;3.80;99.90;;;-141.84;82.42;18891.25;5051141;28;20224;-56
2023/02/25 02:56:14;;;;;;;6.40;2.50;;;3.80;99.90;;;-141.84;82.50;18858.75;5051043;28;20601;-56
2023/02/25 02:58:47;;;;;;;6.07;1.50;;;3.80;99.90;;;-141.84;81.74;18856.72;5051317;28;20209;-61
2023/02/25 03:01:22;;;;;;;4.60;1.90;;;3.80;99.90;;;-141.84;81.90;18862.81;5051234;28;20321;-56
2023/02/25 03:03:59;;;;;;;6.50;1.80;;;3.80;99.90;;;-141.84;81.54;18887.19;5050190;28;20628;-59
2023/02/25 03:06:35;;;;;;;4.83;1.60;;;3.80;99.90;;;-141.84;80.75;18903.44;5050625;28;20646;-57
2023/02/25 03:09:10;;;;;;;4.43;1.77;;;3.80;99.90;;;-141.84;81.46;18879.06;5050500;28;20227;-60
2023/02/25 03:11:38;;;;;;;4.73;1.80;;;3.90;99.90;;;-141.84;80.54;18895.31;5050704;28;20233;-57
2023/02/25 03:14:07;;;;;;;5.50;1.97;;;3.80;99.90;;;-141.84;80.90;18903.44;5034935;28;20222;-57
2023/02/25 03:16:40;;;;;;;3.67;1.70;;;3.80;99.90;;;-141.84;79.50;18883.13;5030865;28;20265;-57
2023/02/25 03:19:15;;;;;;;2.37;1.20;;;3.80;99.90;;;-141.84;78.94;18905.47;5046167;28;20549;-58
2023/02/25 03:21:49;;;;;;;2.10;1.40;;;3.70;99.90;;;-141.84;78.59;18866.88;5050298;28;20456;-59
2023/02/25 03:24:22;;;;;;;1.60;1.20;;;3.50;99.90;;;-141.84;78.45;18895.31;5050105;28;20250;-57
2023/02/25 03:26:52;;;;;;;1.70;1.10;;;3.20;99.90;;;-141.84;80.08;18848.59;5050331;28;20226;-59
2023/02/25 03:29:24;;;;;;;2.07;1.20;;;2.80;99.90;;;-141.84;81.17;18822.19;5050390;28;20228;-57
2023/02/25 03:32:00;;;;;;;1.53;1.30;;;2.60;99.90;;;-141.84;82.09;18822.19;5050327;28;20182;-58
2023/02/25 03:34:38;;;;;;;1.40;1.30;;;2.50;99.90;;;-141.84;82.90;18816.06;5049863;28;20192;-58
2023/02/25 03:37:14;;;;;;;2.33;1.30;;;2.40;99.90;;;-141.84;83.21;18818.09;5050131;28;20228;-56
2023/02/25 03:39:50;;;;;;;3.50;1.23;;;2.30;99.90;;;-141.84;83.40;18809.97;5050053;28;20710;-57
2023/02/25 03:42:34;;;;;;;3.47;1.43;;;2.20;99.90;;;-141.84;83.87;18799.81;5049879;28;20229;-57
2023/02/25 03:45:07;;;;;;;2.03;1.40;;;2.10;99.90;;;-141.84;84.43;18803.88;5050113;28;20228;-58
2023/02/25 03:47:38;;;;;;;2.50;1.60;;;2.10;99.90;;;-141.84;84.59;18759.19;5036649;28;20230;-59
2023/02/25 03:50:13;;;;;;;2.30;1.40;;;2.10;99.90;;;-141.84;84.28;18791.69;5049871;28;20234;-58
2023/02/25 03:52:42;;;;;;;3.60;1.50;;;2.00;99.90;;;-141.84;84.81;18814.03;5050387;28;20548;-58
2023/02/25 03:55:14;;;;;;;1.50;1.07;;;2.00;99.90;;;-141.84;84.89;18799.81;5050222;28;20209;-58
2023/02/25 03:57:47;;;;;;;2.30;1.13;;;2.00;99.90;;;-141.84;85.00;18785.59;5050039;28;20225;-58
2023/02/25 04:00:24;;;;;;;2.40;1.20;;;1.90;99.90;;;-141.84;85.53;18797.78;5049764;28;20240;-58
2023/02/25 04:02:53;;;;;;;2.77;1.23;;;1.80;99.90;;;-141.84;85.88;18812.00;5049677;28;20232;-55
2023/02/25 04:05:26;;;;;;;3.10;1.47;;;1.80;99.90;;;-141.84;85.98;18787.63;5049590;28;20225;-56
2023/02/25 04:07:55;;;;;;;3.37;1.23;;;1.90;99.90;;;-141.84;85.68;18818.09;5050086;28;20244;-59
2023/02/25 04:10:24;;;;;;;1.67;1.27;;;1.90;99.90;;;-141.84;85.41;18795.75;5034713;28;20297;-58
2023/02/25 04:12:52;;;;;;;2.77;1.73;;;1.90;99.90;;;-141.84;84.95;18793.72;5029735;28;20733;-59
2023/02/25 04:15:21;;;;;;;2.27;2.00;;;1.90;99.90;;;-141.84;84.84;18830.31;5030052;28;20237;-56
2023/02/25 04:17:49;;;;;;;3.40;1.87;;;1.90;99.90;;;-141.84;85.31;18773.41;5034284;28;20244;-55
2023/02/25 04:20:18;;;;;;;4.13;2.00;;;1.80;99.90;;;-141.84;85.82;18765.28;5049697;28;20229;-56
2023/02/25 04:22:47;;;;;;;3.37;2.03;;;1.80;99.90;;;-141.84;86.06;18777.47;5049644;28;20623;-56
2023/02/25 04:25:15;;;;;;;3.30;1.83;;;1.80;99.90;;;-141.84;86.27;18763.25;5050287;28;20201;-57
2023/02/25 04:27:43;;;;;;;3.97;2.33;;;1.90;99.90;;;-141.84;85.89;18797.78;5049771;28;20229;-53
2023/02/25 04:30:13;;;;;;;4.17;1.93;;;1.90;99.90;;;-141.84;85.56;18771.38;5049675;28;20642;-55
2023/02/25 04:32:42;;;;;;;3.30;2.07;;;1.90;99.90;;;-141.84;85.54;18753.09;5049635;28;20228;-58
2023/02/25 04:35:11;;;;;;;6.13;2.77;;;1.90;99.90;;;-141.84;85.70;18793.72;5049363;28;20304;-56
2023/02/25 04:37:40;;;;;;;2.83;1.97;;;2.00;99.90;;;-141.84;85.86;18765.28;5050331;28;20212;-57
2023/02/25 04:40:16;;;;;;;3.20;1.60;;;2.00;99.90;;;-141.84;85.55;18793.72;5049499;28;20221;-56
2023/02/25 04:42:44;;;;;;;2.40;2.20;;;2.00;99.90;;;-141.84;85.20;18781.53;5049713;28;20235;-55
2023/02/25 04:45:14;;;;;;;1.97;1.70;;;2.00;99.90;;;-141.84;85.91;18775.44;5050835;28;20717;-57
2023/02/25 04:47:42;;;;;;;3.57;1.60;;;1.90;99.90;;;-141.84;86.32;18773.41;5039980;28;20225;-58
2023/02/25 04:50:12;;;;;;;2.80;1.50;;;1.90;99.90;;;-141.84;86.21;18775.44;5052962;28;20221;-56
2023/02/25 04:52:40;;;;;;;2.10;1.70;;;1.90;99.90;;;-141.84;85.97;18781.53;5053758;28;20229;-58
2023/02/25 04:55:11;;;;;;;4.70;1.87;;;1.90;99.90;;;-141.84;85.80;18763.25;5053055;28;20232;-58
2023/02/25 04:57:41;;;;;;;4.63;1.70;;;1.90;99.90;;;-141.84;85.72;18730.75;5053137;28;20224;-57
2023/02/25 05:00:17;;;;;;;2.33;1.60;;;1.90;99.90;;;-141.84;85.88;18785.59;5052913;28;20927;-57
2023/02/25 05:02:47;;;;;;;2.13;1.80;;;1.90;99.90;;;-141.84;85.91;18775.44;5053074;28;20277;-56
2023/02/25 05:05:17;;;;;;;3.37;1.60;;;1.90;99.90;;;-141.84;85.76;18732.78;5048598;28;20222;-58
2023/02/25 05:07:45;;;;;;;4.70;1.63;;;1.90;99.90;;;-141.84;85.88;18785.59;5033470;28;20206;-56
2023/02/25 05:10:16;;;;;;;2.60;1.53;;;2.00;99.90;;;-141.84;85.17;18761.22;5033167;28;20548;-57
2023/02/25 05:12:44;;;;;;;1.50;1.40;;;2.00;99.90;;;-141.84;84.76;18793.72;5033201;28;20230;-56
2023/02/25 05:15:12;;;;;;;2.77;1.50;;;2.00;99.90;;;-141.84;84.46;18814.03;5033105;28;20246;-58
2023/02/25 05:17:41;;;;;;;2.53;1.60;;;2.10;99.90;;;-141.84;84.58;18797.78;5036494;28;20724;-55
2023/02/25 05:20:11;;;;;;;2.50;1.70;;;2.10;99.90;;;-141.84;84.53;18807.94;5052800;28;20231;-57
2023/02/25 05:22:41;;;;;;;3.10;1.63;;;2.10;99.90;;;-141.84;83.42;18765.28;5053081;28;20645;-57
2023/02/25 05:25:11;;;;;;;4.27;2.00;;;2.20;99.90;;;-141.84;83.61;18789.66;5052495;28;20221;-55
2023/02/25 05:27:40;;;;;;;4.37;1.70;;;2.20;99.90;;;-141.84;84.11;18816.06;5052462;28;20604;-59
2023/02/25 05:30:10;;;;;;;3.40;1.63;;;2.20;99.90;;;-141.84;84.07;18781.53;5052460;28;20225;-56
2023/02/25 05:32:39;;;;;;;3.83;1.77;;;2.20;99.90;;;-141.84;84.00;18775.44;5052453;28;20233;-59
2023/02/25 05:35:10;;;;;;;1.97;1.37;;;2.20;99.90;;;-141.84;83.94;18818.09;5052470;28;20221;-58
2023/02/25 05:37:39;;;;;;;2.20;1.40;;;2.20;99.90;;;-141.84;83.50;18826.25;5052814;28;20624;-53
2023/02/25 05:40:09;;;;;;;2.43;1.57;;;2.20;99.90;;;-141.84;83.49;18783.56;5052294;28;20228;-57
2023/02/25 05:42:37;;;;;;;1.53;1.37;;;2.20;99.90;;;-141.84;82.66;18799.81;5052081;28;20229;-58
2023/02/25 05:45:09;;;;;;;3.00;1.40;;;2.30;99.90;;;-141.84;82.26;18820.16;5052368;28;20239;-57
2023/02/25 05:47:37;;;;;;;2.30;1.10;;;2.30;99.90;;;-141.84;82.55;18775.44;5051517;28;20760;-54
2023/02/25 05:50:06;;;;;;;2.50;1.30;;;2.30;99.90;;;-141.84;82.20;18816.06;5052015;28;20222;-59
2023/02/25 05:52:34;;;;;;;1.93;1.53;;;2.30;99.90;;;-141.84;81.89;18805.91;5052832;28;20232;-57
2023/02/25 05:55:03;;;;;;;2.10;1.10;;;2.40;99.90;;;-141.84;81.87;18842.50;5051764;28;20226;-58
2023/02/25 05:57:31;;;;;;;3.23;1.37;;;2.40;99.90;;;-141.84;81.22;18814.03;5050945;28;20247;-57
2023/02/25 06:00:00;;;;;;;1.13;1.00;;;2.40;99.90;;;-141.84;81.04;18807.94;5052061;28;20753;-55
2023/02/25 06:02:30;;;;;;;3.63;1.27;;;2.50;99.90;;;-141.84;80.96;18824.22;5048743;28;20225;-57
2023/02/25 06:04:58;;;;;;;2.10;1.30;;;2.50;99.90;;;-141.84;81.51;18797.78;5051926;28;20205;-57
2023/02/25 06:07:29;;;;;;;2.60;1.30;;;2.40;99.90;;;-141.84;81.48;18828.28;5052558;28;20205;-57
2023/02/25 06:09:59;;;;;;;3.23;1.27;;;2.50;99.90;;;-141.84;81.04;18824.22;5051762;28;20232;-57
2023/02/25 06:12:30;;;;;;;3.53;1.13;;;2.50;99.90;;;-141.84;81.15;18854.69;5051680;28;20649;-58
2023/02/25 06:14:58;;;;;;;3.13;1.30;;;2.50;99.90;;;-141.84;81.59;18838.44;5052056;28;20240;-57
2023/02/25 06:17:26;;;;;;;1.63;1.40;;;2.50;99.90;;;-141.84;81.97;18799.81;5051608;28;20245;-54
2023/02/25 06:19:56;;;;;;;2.13;1.93;;;2.50;99.90;;;-141.84;81.59;18836.41;5051895;28;20214;-56
2023/02/25 06:22:24;;;;;;;3.43;1.50;;;2.50;99.90;;;-141.84;81.16;18858.75;5052192;28;20202;-56
2023/02/25 06:24:52;;;;;;;3.10;1.47;;;2.60;99.90;;;-141.84;80.64;18858.75;5051412;28;20609;-56
2023/02/25 06:27:21;;;;;;;3.23;1.40;;;2.60;99.90;;;-141.84;80.62;18866.88;5051369;28;20279;-59
2023/02/25 06:29:49;;;;;;;3.77;1.50;;;2.60;99.90;;;-141.84;80.96;18836.41;5051723;28;20233;-57
2023/02/25 06:32:18;;;;;;;3.73;1.73;;;2.60;99.90;;;-141.84;80.78;18860.78;5051121;28;20725;-57
2023/02/25 06:34:47;;;;;;;4.20;1.67;;;2.70;99.90;;;-141.84;80.84;18846.56;5051312;28;20221;-58
2023/02/25 06:37:16;;;;;;;4.40;2.23;;;2.70;99.90;;;-141.84;80.74;18824.22;5051901;28;20197;-57
2023/02/25 06:39:44;;;;;;;3.80;1.70;;;2.70;99.90;;;-141.84;80.46;18846.56;5051123;28;20233;-55
2023/02/25 06:42:12;;;;;;;3.60;1.80;;;2.70;99.90;;;-141.84;80.85;18872.97;5048233;28;20239;-57
2023/02/25 06:44:40;;;;;;;2.43;1.67;;;2.70;99.90;;;-141.84;80.51;18856.72;5030991;28;20733;-56
2023/02/25 06:47:09;;;;;;;3.33;1.63;;;2.80;99.90;;;-141.84;79.36;18860.78;5043290;28;20219;-55
2023/02/25 06:49:37;;;;;;;3.60;1.80;;;2.90;99.90;;;-141.84;79.26;18868.91;5050758;28;20220;-55
2023/02/25 06:52:05;;;;;;;4.63;1.90;;;2.90;99.90;;;-141.84;79.93;18854.69;5050802;28;20234;-55
2023/02/25 06:54:35;;;;;;;2.77;1.50;;;2.80;99.90;;;-141.84;80.02;18858.75;5050788;28;20226;-56
2023/02/25 06:57:03;;;;;;;3.23;1.87;;;2.80;99.90;;;-141.84;79.79;18836.41;5050621;28;20225;-59
2023/02/25 06:59:34;;;;;;;4.23;1.90;;;2.90;99.90;;;-141.84;79.40;18868.91;5032106;28;20248;-56
2023/02/25 07:02:03;;;;;;;4.10;2.17;;;2.80;99.90;;;-141.84;79.33;18866.88;5030684;28;20796;-58
2023/02/25 07:04:31;;;;;;;5.00;2.00;;;2.90;99.90;;;-141.84;79.71;18866.88;5031207;28;20200;-56
2023/02/25 07:06:59;;;;;;;3.40;1.90;;;2.90;99.90;;;-141.84;79.69;18854.69;5030398;28;20607;-56
2023/02/25 07:09:27;;;;;;;2.30;1.93;;;2.80;99.90;;;-141.84;79.07;18897.34;5030558;28;20229;-58
2023/02/25 07:11:57;;;;;;;3.00;1.97;;;2.90;99.90;;;-141.84;78.36;18893.28;5030671;28;20232;-58
2023/02/25 07:14:25;;;;;;;3.63;1.97;;;3.00;99.90;;;-141.84;78.61;18895.31;5030631;28;20713;-58
2023/02/25 07:16:53;;;;;;;3.13;2.07;;;2.90;99.90;;;-141.84;77.61;18887.19;5029995;28;20729;-56
2023/02/25 07:19:21;;;;;;;4.53;2.43;;;3.00;99.90;;;-141.84;78.00;18870.94;5048842;28;20205;-57
2023/02/25 07:21:49;;;;;;;4.47;2.37;;;3.00;99.90;;;-141.84;78.73;18860.78;5050372;28;20256;-57
2023/02/25 07:24:18;;;;;;;3.90;2.30;;;2.90;99.90;;;-141.84;78.96;18852.66;5050390;28;20602;-56
2023/02/25 07:26:46;;;;;;;3.33;2.50;;;2.90;99.90;;;-141.84;79.49;18862.81;5050457;28;20237;-59
2023/02/25 07:29:16;;;;;;;3.27;2.10;;;3.00;99.90;;;-141.84;78.82;18883.13;5050455;28;20738;-65
2023/02/25 07:31:44;;;;;;;3.97;2.17;;;3.00;99.90;;;-141.84;78.64;18868.91;5050775;28;20205;-64
2023/02/25 07:34:13;;;;;;;2.57;1.93;;;3.00;99.90;;;-141.84;78.62;18864.84;5050677;28;20224;-64
2023/02/25 07:36:41;;;;;;;5.23;2.13;;;3.00;99.90;;;-141.84;78.82;18883.13;5050339;28;20250;-66
2023/02/25 07:39:12;;;;;;;2.67;2.00;;;3.00;99.90;;;-141.84;77.91;18903.44;5050222;28;20217;-65
2023/02/25 07:41:40;;;;;;;3.83;2.10;;;3.10;99.90;;;-141.84;78.01;18875.00;5050343;28;20323;-65
2023/02/25 07:44:09;;;;;;;3.70;2.10;;;3.10;99.90;;;-141.84;78.87;18879.06;5050102;28;20232;-68
2023/02/25 07:46:39;;;;;;;3.23;2.17;;;3.00;99.90;;;-141.84;78.63;18838.44;5050244;28;20714;-65
2023/02/25 07:49:08;;;;;;;3.90;2.23;;;3.00;99.90;;;-141.84;78.52;18889.22;5049805;28;20304;-67
2023/02/25 07:51:36;;;;;;;3.50;2.03;;;3.00;99.90;;;-141.84;78.07;18870.94;5050472;28;20232;-65
2023/02/25 07:54:04;;;;;;;2.73;1.90;;;3.00;99.90;;;-141.84;77.33;18875.00;5045941;28;20240;-67
2023/02/25 07:56:33;;;;;;;2.77;2.10;;;3.00;99.90;;;-141.84;76.43;18866.88;5030762;28;20221;-65
2023/02/25 07:59:01;;;;;;;2.53;1.80;;;3.00;99.90;;;-141.84;77.22;18917.66;5031365;28;20229;-65
2023/02/25 08:01:33;;;;;;;2.47;1.70;;;3.10;99.90;;;-141.84;76.94;18866.88;5033169;28;20204;-66
2023/02/25 08:04:05;;;;;;;3.80;1.80;;;3.10;99.90;;;-141.84;75.67;18931.91;5031253;28;20237;-66
2023/02/25 08:06:37;;;;;;;5.77;2.90;;;3.10;99.90;;;-141.84;76.09;18929.88;5029854;28;20230;-67
2023/02/25 08:09:05;;;;;;;2.50;2.00;;;3.20;99.90;;;-141.84;74.47;18913.59;5030126;28;20226;-66
2023/02/25 08:11:34;;;;;;;2.17;1.80;;;3.10;99.90;;;-141.84;73.70;18929.88;5030485;28;20240;-66
2023/02/25 08:14:03;;;;;;;2.03;1.70;;;3.10;99.90;;;-141.84;73.75;18907.50;5030121;28;20214;-66
2023/02/25 08:16:33;;;;;;;2.20;1.60;;;3.10;99.90;;;-141.84;74.54;18889.22;5029519;28;20651;-66
2023/02/25 08:19:03;;;;;;;2.23;2.00;;;3.10;99.90;;;-141.84;74.85;18909.53;5050055;28;20241;-66
2023/02/25 08:21:32;;;;;;;2.57;2.10;;;3.00;99.90;;;-141.84;74.74;18913.59;5053585;28;20213;-66
2023/02/25 08:24:00;;;;;;;2.20;2.00;;;3.10;99.90;;;-141.84;75.38;18911.56;5054644;28;20278;-65
2023/02/25 08:26:28;;;;;;;3.40;2.37;;;3.20;99.90;;;-141.84;75.77;18915.63;5055056;28;20224;-66
2023/02/25 08:28:57;;;;;;;4.27;2.37;;;3.10;99.90;;;-141.84;76.42;18911.56;5074898;28;20211;-66
2023/02/25 08:31:26;;;;;;;5.03;2.37;;;3.10;99.90;;;-141.84;76.05;18917.66;5075254;28;20203;-65
2023/02/25 08:33:57;;;;;;;2.47;1.80;;;3.10;99.90;;;-141.84;76.40;18901.41;5074519;28;20320;-66
2023/02/25 08:36:30;;;;;;;2.13;1.70;;;3.00;99.90;;;-141.84;76.61;18858.75;5074629;28;20249;-65
2023/02/25 08:38:59;;;;;;;1.77;1.23;;;2.80;99.90;;;-141.84;76.95;18875.00;5066798;28;20221;-65
2023/02/25 08:41:29;;;;;;;2.70;1.50;;;2.70;99.90;;;-141.84;77.30;18899.38;5053641;28;20224;-65
2023/02/25 08:44:00;;;;;;;2.50;1.20;;;2.60;99.90;;;-141.84;77.80;18866.88;5053674;28;20255;-65
2023/02/25 08:46:31;;;;;;;3.37;1.30;;;2.70;99.90;;;-141.84;77.44;18858.75;5045964;28;20644;-65
2023/02/25 08:49:00;;;;;;;2.10;1.60;;;2.70;99.90;;;-141.84;77.19;18899.38;5047800;28;20231;-65
2023/02/25 08:51:33;;;;;;;2.37;1.73;;;2.70;99.90;;;-141.84;77.05;18866.88;5049468;28;20589;-65
2023/02/25 08:54:05;;;;;;;4.87;2.10;;;2.70;99.90;;;-141.84;77.83;18870.94;5052848;28;20221;-66
2023/02/25 08:56:34;;;;;;;2.57;2.10;;;2.70;99.90;;;-141.84;77.30;18903.44;5053182;28;20242;-67
2023/02/25 08:59:02;;;;;;;4.00;2.70;;;2.70;99.90;;;-141.84;77.34;18901.41;5053117;28;20202;-66
2023/02/25 09:01:43;;;;;;;2.63;2.20;;;2.70;99.90;;;-141.84;77.69;18864.84;5053692;28;20202;-65
2023/02/25 09:04:13;;;;;;;3.40;2.87;;;2.60;99.90;;;-141.84;77.53;18875.00;5053529;28;20213;-65
2023/02/25 09:06:46;;;;;;;3.43;2.47;;;2.70;99.90;;;-141.84;78.00;18879.06;5052843;28;20635;-64
2023/02/25 09:09:14;;;;;;;2.80;2.33;;;2.70;99.90;;;-141.84;78.66;18850.63;5052838;28;20225;-65
2023/02/25 09:11:44;;;;;;;3.63;2.73;;;2.70;99.90;;;-141.84;78.25;18889.22;5051046;28;20234;-64
2023/02/25 09:14:13;;;;;;;4.87;2.63;;;2.90;99.90;;;-141.84;77.42;18862.81;5052443;28;20236;-63
2023/02/25 09:16:41;;;;;;;3.73;2.53;;;2.90;99.90;;;-141.84;76.45;18915.63;5041274;28;20609;-65
2023/02/25 09:19:11;;;;;;;4.77;2.60;;;3.10;99.90;;;-141.84;75.94;18915.63;5038718;28;20237;-65
2023/02/25 09:21:40;;;;;;;3.20;2.40;;;3.20;99.90;;;-141.84;75.95;18944.09;5043977;28;20228;-67
2023/02/25 09:24:10;;;;;;;4.37;2.50;;;3.30;99.90;;;-141.84;75.40;18948.16;5052470;28;20236;-65
2023/02/25 09:26:38;;;;;;;2.83;2.20;;;3.30;99.90;;;-141.84;75.23;18915.63;5053052;28;20229;-64
2023/02/25 09:29:08;;;;;;;3.67;2.20;;;3.50;99.90;;;-141.84;75.46;18942.06;5052582;28;20223;-64
2023/02/25 09:31:38;;;;;;;3.17;2.33;;;3.40;99.90;;;-141.84;74.79;18952.22;5051964;28;20609;-63
2023/02/25 09:34:12;;;;;;;3.37;2.50;;;3.50;99.90;;;-141.84;74.21;18923.78;5051960;28;20678;-63
2023/02/25 09:36:41;;;;;;;2.53;2.27;;;3.50;99.90;;;-141.84;74.43;18948.16;5052323;28;20659;-64
2023/02/25 09:39:11;;;;;;;3.87;2.23;;;3.60;99.90;;;-141.84;74.87;18956.28;5043873;28;20224;-65
2023/02/25 09:41:50;;;;;;;4.47;2.20;;;3.60;99.90;;;-141.84;73.94;18946.13;5043709;28;20229;-64
2023/02/25 09:44:28;;;;;;;2.63;2.17;;;3.70;99.90;;;-141.84;73.12;18946.13;5040256;28;20724;-65
2023/02/25 09:47:03;;;;;;;3.27;1.87;;;3.70;99.90;;;-141.84;72.71;18950.19;5034862;28;20195;-64
2023/02/25 09:49:38;;;;;;;2.73;1.77;;;3.70;99.90;;;-141.84;73.43;18980.66;5050876;28;20206;-65
2023/02/25 09:52:17;;;;;;;2.20;2.00;;;3.90;99.90;;;-141.84;72.76;18988.78;5047533;28;20216;-64
2023/02/25 09:54:54;;;;;;;2.50;1.93;;;4.00;99.90;;;-141.84;71.44;19025.38;5051659;28;20221;-62
2023/02/25 09:57:23;;;;;;;2.30;2.10;;;4.20;99.90;;;-141.84;70.55;19000.97;5051745;28;20609;-64
2023/02/25 09:59:53;;;;;;;3.93;2.10;;;4.20;99.90;;;-141.84;71.85;19005.03;5052382;28;20259;-64
2023/02/25 10:02:36;;;;;;;2.83;2.27;;;4.10;99.90;;;-141.84;71.41;19013.16;5047806;28;20316;-63
2023/02/25 10:05:24;;;;;;;2.57;2.10;;;4.00;99.90;;;-141.84;72.05;18974.56;5051051;28;20240;-63
2023/02/25 10:08:07;;;;;;;3.30;2.47;;;4.00;99.90;;;-141.84;71.73;18956.28;5051942;28;20196;-62
2023/02/25 10:10:49;;;;;;;4.40;2.30;;;4.00;99.90;;;-141.84;72.38;18968.47;5052265;28;20193;-63
2023/02/25 10:13:32;;;;;;;2.93;2.50;;;3.80;99.90;;;-141.84;73.60;18931.91;5052231;28;20213;-63
2023/02/25 10:16:21;;;;;;;2.47;2.00;;;3.60;99.90;;;-141.84;73.73;18940.03;5051265;28;20228;-63
2023/02/25 10:19:07;;;;;;;2.47;2.20;;;3.50;99.90;;;-141.84;74.36;18891.25;5051212;28;20225;-63
2023/02/25 10:21:56;;;;;;;2.00;1.80;;;3.30;99.90;;;-141.84;74.44;18935.97;5051557;28;20297;-62
2023/02/25 10:24:34;;;;;;;2.53;1.97;;;3.30;99.90;;;-141.84;74.26;18956.28;5051199;28;20594;-62
2023/02/25 10:27:16;;;;;;;4.67;2.70;;;3.40;99.90;;;-141.84;73.96;18952.22;5051021;28;20608;-62
2023/02/25 10:29:49;;;;;;;2.60;2.07;;;3.40;99.90;;;-141.84;74.03;18946.13;5051096;28;20739;-63
2023/02/25 10:32:22;;;;;;;2.10;1.90;;;3.60;99.90;;;-141.84;72.33;18972.53;5050895;28;20742;-63